sensor_id;sensor_type;location;lat;lon;timestamp;temperature;humidity
816;DHT22;25928;51.062;13.752;2022-12-11T00:02:07;2.30;1.00
816;DHT22;25928;51.062;13.752;2022-12-11T00:04:32;2.30;1.00
816;DHT22;25928;51.062;13.752;2022-12-11T00:06:58;2.20;1.00
816;DHT22;25928;51.062;13.752;2022-12-11T00:09:23;2.30;1.00
816;DHT22;25928;51.062;13.752;2022-12-11T00:11:49;2.40;1.00
816;DHT22;25928;51.062;13.752;2022-12-11T00:14:15;2.30;1.00
816;DHT22;25928;51.062;13.752;2022-12-11T00:16:41;2.20;1.00
816;DHT22;25928;51.062;13.752;2022-12-11T00:19:07;2.10;1.00
816;DHT22;25928;51.062;13.752;2022-12-11T00:21:33;2.20;1.00
816;DHT22;25928;51.062;13.752;2022-12-11T00:23:59;2.30;1.00
816;DHT22;25928;51.062;13.752;2022-12-11T00:26:25;2.30;1.00
816;DHT22;25928;51.062;13.752;2022-12-11T00:28:55;2.30;1.00
816;DHT22;25928;51.062;13.752;2022-12-11T00:31:21;2.30;1.00
816;DHT22;25928;51.062;13.752;2022-12-11T00:33:48;2.40;1.00
816;DHT22;25928;51.062;13.752;2022-12-11T00:36:20;2.40;1.00
816;DHT22;25928;51.062;13.752;2022-12-11T00:38:46;2.50;1.00
816;DHT22;25928;51.062;13.752;2022-12-11T00:41:13;2.40;1.00
816;DHT22;25928;51.062;13.752;2022-12-11T00:43:39;2.40;1.00
816;DHT22;25928;51.062;13.752;2022-12-11T00:46:05;2.40;1.00
816;DHT22;25928;51.062;13.752;2022-12-11T00:48:30;2.30;1.00
816;DHT22;25928;51.062;13.752;2022-12-11T00:50:56;2.20;1.00
816;DHT22;25928;51.062;13.752;2022-12-11T00:53:21;2.20;1.00
816;DHT22;25928;51.062;13.752;2022-12-11T00:55:47;2.20;1.00
816;DHT22;25928;51.062;13.752;2022-12-11T00:58:13;2.20;1.00
816;DHT22;25928;51.062;13.752;2022-12-11T01:00:39;2.20;1.00
816;DHT22;25928;51.062;13.752;2022-12-11T01:03:05;2.30;1.00
816;DHT22;25928;51.062;13.752;2022-12-11T01:05:32;2.20;1.00
816;DHT22;25928;51.062;13.752;2022-12-11T01:07:58;2.10;1.00
816;DHT22;25928;51.062;13.752;2022-12-11T01:10:24;2.10;1.00
816;DHT22;25928;51.062;13.752;2022-12-11T01:12:51;2.20;1.00
816;DHT22;25928;51.062;13.752;2022-12-11T01:15:18;2.20;1.00
816;DHT22;25928;51.062;13.752;2022-12-11T01:17:44;2.20;1.00
816;DHT22;25928;51.062;13.752;2022-12-11T01:20:10;2.10;1.00
816;DHT22;25928;51.062;13.752;2022-12-11T01:22:36;2.00;1.00
816;DHT22;25928;51.062;13.752;2022-12-11T01:25:02;1.90;1.00
816;DHT22;25928;51.062;13.752;2022-12-11T01:27:27;2.00;1.00
816;DHT22;25928;51.062;13.752;2022-12-11T01:29:53;2.00;1.00
816;DHT22;25928;51.062;13.752;2022-12-11T01:32:18;2.10;1.00
816;DHT22;25928;51.062;13.752;2022-12-11T01:34:44;2.10;1.00
816;DHT22;25928;51.062;13.752;2022-12-11T01:37:10;2.00;1.00
816;DHT22;25928;51.062;13.752;2022-12-11T01:39:35;2.50;1.00
816;DHT22;25928;51.062;13.752;2022-12-11T01:42:03;1.90;1.00
816;DHT22;25928;51.062;13.752;2022-12-11T01:46:54;1.60;1.00
816;DHT22;25928;51.062;13.752;2022-12-11T01:49:22;2.00;1.00
816;DHT22;25928;51.062;13.752;2022-12-11T01:51:58;2.00;1.00
816;DHT22;25928;51.062;13.752;2022-12-11T01:54:26;1.90;1.00
816;DHT22;25928;51.062;13.752;2022-12-11T01:56:55;1.90;1.00
816;DHT22;25928;51.062;13.752;2022-12-11T01:59:23;3.60;1.00
816;DHT22;25928;51.062;13.752;2022-12-11T02:01:56;2.00;1.00
816;DHT22;25928;51.062;13.752;2022-12-11T02:04:23;1.90;1.00
816;DHT22;25928;51.062;13.752;2022-12-11T02:06:51;1.90;1.00
816;DHT22;25928;51.062;13.752;2022-12-11T02:09:29;1.90;1.00
816;DHT22;25928;51.062;13.752;2022-12-11T02:12:14;2.00;1.00
816;DHT22;25928;51.062;13.752;2022-12-11T02:17:39;2.20;1.00
816;DHT22;25928;51.062;13.752;2022-12-11T02:20:07;2.10;1.00
816;DHT22;25928;51.062;13.752;2022-12-11T02:23:10;2.10;1.00
816;DHT22;25928;51.062;13.752;2022-12-11T02:28:38;2.00;1.00
816;DHT22;25928;51.062;13.752;2022-12-11T02:34:07;2.00;1.00
816;DHT22;25928;51.062;13.752;2022-12-11T02:36:37;1.90;1.00
816;DHT22;25928;51.062;13.752;2022-12-11T02:39:06;1.90;1.00
816;DHT22;25928;51.062;13.752;2022-12-11T02:41:33;1.90;1.00
816;DHT22;25928;51.062;13.752;2022-12-11T02:44:01;2.00;1.00
816;DHT22;25928;51.062;13.752;2022-12-11T02:46:28;2.00;1.00
816;DHT22;25928;51.062;13.752;2022-12-11T02:48:56;2.10;1.00
816;DHT22;25928;51.062;13.752;2022-12-11T02:51:27;2.00;1.00
816;DHT22;25928;51.062;13.752;2022-12-11T02:53:57;1.90;1.00
816;DHT22;25928;51.062;13.752;2022-12-11T02:56:28;1.90;1.00
816;DHT22;25928;51.062;13.752;2022-12-11T02:58:59;1.80;1.00
816;DHT22;25928;51.062;13.752;2022-12-11T03:01:25;1.80;1.00
816;DHT22;25928;51.062;13.752;2022-12-11T03:03:52;1.90;1.00
816;DHT22;25928;51.062;13.752;2022-12-11T03:06:21;1.90;1.00
816;DHT22;25928;51.062;13.752;2022-12-11T03:08:48;2.00;1.00
816;DHT22;25928;51.062;13.752;2022-12-11T03:11:16;2.00;1.00
816;DHT22;25928;51.062;13.752;2022-12-11T03:13:42;2.00;1.00
816;DHT22;25928;51.062;13.752;2022-12-11T03:21:52;1.80;1.00
816;DHT22;25928;51.062;13.752;2022-12-11T03:24:29;1.80;1.00
816;DHT22;25928;51.062;13.752;2022-12-11T03:27:08;1.90;1.00
816;DHT22;25928;51.062;13.752;2022-12-11T03:29:40;1.80;1.00
816;DHT22;25928;51.062;13.752;2022-12-11T03:32:16;1.80;1.00
816;DHT22;25928;51.062;13.752;2022-12-11T03:34:50;1.80;1.00
816;DHT22;25928;51.062;13.752;2022-12-11T03:37:18;1.80;1.00
816;DHT22;25928;51.062;13.752;2022-12-11T03:39:49;1.90;1.00
816;DHT22;25928;51.062;13.752;2022-12-11T03:42:17;1.90;1.00
816;DHT22;25928;51.062;13.752;2022-12-11T03:44:47;2.00;1.00
816;DHT22;25928;51.062;13.752;2022-12-11T03:47:18;2.20;1.00
816;DHT22;25928;51.062;13.752;2022-12-11T03:49:47;2.20;1.00
816;DHT22;25928;51.062;13.752;2022-12-11T03:52:14;2.30;1.00
816;DHT22;25928;51.062;13.752;2022-12-11T03:54:42;2.40;1.00
816;DHT22;25928;51.062;13.752;2022-12-11T03:57:10;2.20;1.00
816;DHT22;25928;51.062;13.752;2022-12-11T03:59:37;2.10;1.00
816;DHT22;25928;51.062;13.752;2022-12-11T04:02:03;2.10;1.00
816;DHT22;25928;51.062;13.752;2022-12-11T04:04:39;2.00;1.00
816;DHT22;25928;51.062;13.752;2022-12-11T04:07:05;1.90;1.00
816;DHT22;25928;51.062;13.752;2022-12-11T04:09:31;1.90;1.00
816;DHT22;25928;51.062;13.752;2022-12-11T04:11:57;1.90;1.00
816;DHT22;25928;51.062;13.752;2022-12-11T04:14:22;1.80;1.00
816;DHT22;25928;51.062;13.752;2022-12-11T04:17:07;1.70;1.00
816;DHT22;25928;51.062;13.752;2022-12-11T04:19:32;1.70;1.00
816;DHT22;25928;51.062;13.752;2022-12-11T04:22:17;1.70;1.00
816;DHT22;25928;51.062;13.752;2022-12-11T04:25:04;1.90;1.00
816;DHT22;25928;51.062;13.752;2022-12-11T04:27:31;1.90;1.00
816;DHT22;25928;51.062;13.752;2022-12-11T04:30:23;1.80;1.00
816;DHT22;25928;51.062;13.752;2022-12-11T04:32:49;1.70;1.00
816;DHT22;25928;51.062;13.752;2022-12-11T04:35:15;1.70;1.00
816;DHT22;25928;51.062;13.752;2022-12-11T04:37:41;1.80;1.00
816;DHT22;25928;51.062;13.752;2022-12-11T04:40:10;1.70;1.00
816;DHT22;25928;51.062;13.752;2022-12-11T04:42:36;1.70;1.00
816;DHT22;25928;51.062;13.752;2022-12-11T04:45:03;1.70;1.00
816;DHT22;25928;51.062;13.752;2022-12-11T04:47:28;1.70;1.00
816;DHT22;25928;51.062;13.752;2022-12-11T04:49:54;1.60;1.00
816;DHT22;25928;51.062;13.752;2022-12-11T04:52:20;1.50;1.00
816;DHT22;25928;51.062;13.752;2022-12-11T04:54:46;1.50;1.00
816;DHT22;25928;51.062;13.752;2022-12-11T04:57:11;1.60;1.00
816;DHT22;25928;51.062;13.752;2022-12-11T04:59:37;1.60;1.00
816;DHT22;25928;51.062;13.752;2022-12-11T05:02:03;1.60;1.00
816;DHT22;25928;51.062;13.752;2022-12-11T05:04:33;1.70;1.00
816;DHT22;25928;51.062;13.752;2022-12-11T05:06:59;1.80;1.00
816;DHT22;25928;51.062;13.752;2022-12-11T05:09:25;1.80;1.00
816;DHT22;25928;51.062;13.752;2022-12-11T05:11:52;1.90;1.00
816;DHT22;25928;51.062;13.752;2022-12-11T05:14:17;2.00;1.00
816;DHT22;25928;51.062;13.752;2022-12-11T05:16:43;1.90;1.00
816;DHT22;25928;51.062;13.752;2022-12-11T05:19:09;2.00;1.00
816;DHT22;25928;51.062;13.752;2022-12-11T05:21:34;1.90;1.00
816;DHT22;25928;51.062;13.752;2022-12-11T05:24:00;1.70;1.00
816;DHT22;25928;51.062;13.752;2022-12-11T05:26:26;1.70;1.00
816;DHT22;25928;51.062;13.752;2022-12-11T05:28:52;1.50;1.00
816;DHT22;25928;51.062;13.752;2022-12-11T05:31:23;1.40;1.00
816;DHT22;25928;51.062;13.752;2022-12-11T05:33:51;1.90;1.00
816;DHT22;25928;51.062;13.752;2022-12-11T05:36:22;1.80;1.00
816;DHT22;25928;51.062;13.752;2022-12-11T05:38:49;1.00;1.00
816;DHT22;25928;51.062;13.752;2022-12-11T05:41:18;0.90;1.00
816;DHT22;25928;51.062;13.752;2022-12-11T05:43:44;0.90;1.00
816;DHT22;25928;51.062;13.752;2022-12-11T05:46:24;1.10;1.00
816;DHT22;25928;51.062;13.752;2022-12-11T05:48:53;1.00;1.00
816;DHT22;25928;51.062;13.752;2022-12-11T05:51:19;1.00;1.00
816;DHT22;25928;51.062;13.752;2022-12-11T05:53:47;0.70;1.00
816;DHT22;25928;51.062;13.752;2022-12-11T05:56:18;0.70;1.00
816;DHT22;25928;51.062;13.752;2022-12-11T05:58:45;0.80;1.00
816;DHT22;25928;51.062;13.752;2022-12-11T06:01:24;0.80;1.00
816;DHT22;25928;51.062;13.752;2022-12-11T06:03:50;1.00;1.00
816;DHT22;25928;51.062;13.752;2022-12-11T06:06:16;0.70;1.00
816;DHT22;25928;51.062;13.752;2022-12-11T06:08:42;1.10;1.00
816;DHT22;25928;51.062;13.752;2022-12-11T06:11:08;1.00;1.00
816;DHT22;25928;51.062;13.752;2022-12-11T06:13:34;1.00;1.00
816;DHT22;25928;51.062;13.752;2022-12-11T06:16:04;0.90;1.00
816;DHT22;25928;51.062;13.752;2022-12-11T06:18:30;0.80;1.00
816;DHT22;25928;51.062;13.752;2022-12-11T06:20:56;0.70;1.00
816;DHT22;25928;51.062;13.752;2022-12-11T06:23:22;0.70;1.00
816;DHT22;25928;51.062;13.752;2022-12-11T06:25:47;0.70;1.00
816;DHT22;25928;51.062;13.752;2022-12-11T06:28:13;0.60;1.00
816;DHT22;25928;51.062;13.752;2022-12-11T06:30:38;0.60;1.00
816;DHT22;25928;51.062;13.752;2022-12-11T06:33:04;0.60;1.00
816;DHT22;25928;51.062;13.752;2022-12-11T06:35:30;0.60;1.00
816;DHT22;25928;51.062;13.752;2022-12-11T06:37:56;0.60;1.00
816;DHT22;25928;51.062;13.752;2022-12-11T06:40:21;0.60;1.00
816;DHT22;25928;51.062;13.752;2022-12-11T06:42:47;0.60;1.00
816;DHT22;25928;51.062;13.752;2022-12-11T06:45:13;0.60;1.00
816;DHT22;25928;51.062;13.752;2022-12-11T06:47:38;0.60;1.00
816;DHT22;25928;51.062;13.752;2022-12-11T06:50:05;0.50;1.00
816;DHT22;25928;51.062;13.752;2022-12-11T06:52:31;0.50;1.00
816;DHT22;25928;51.062;13.752;2022-12-11T06:54:56;0.40;1.00
816;DHT22;25928;51.062;13.752;2022-12-11T06:57:22;0.30;1.00
816;DHT22;25928;51.062;13.752;2022-12-11T06:59:48;0.30;1.00
816;DHT22;25928;51.062;13.752;2022-12-11T07:02:15;0.20;1.00
816;DHT22;25928;51.062;13.752;2022-12-11T07:04:41;0.20;1.00
816;DHT22;25928;51.062;13.752;2022-12-11T07:07:08;0.40;1.00
816;DHT22;25928;51.062;13.752;2022-12-11T07:09:34;0.40;1.00
816;DHT22;25928;51.062;13.752;2022-12-11T07:12:01;0.30;1.00
816;DHT22;25928;51.062;13.752;2022-12-11T07:14:29;0.30;1.00
816;DHT22;25928;51.062;13.752;2022-12-11T07:16:55;0.30;1.00
816;DHT22;25928;51.062;13.752;2022-12-11T07:19:21;0.20;1.00
816;DHT22;25928;51.062;13.752;2022-12-11T07:21:46;0.10;1.00
816;DHT22;25928;51.062;13.752;2022-12-11T07:24:12;0.10;1.00
816;DHT22;25928;51.062;13.752;2022-12-11T07:26:37;0.10;1.00
816;DHT22;25928;51.062;13.752;2022-12-11T07:29:03;0.10;1.00
816;DHT22;25928;51.062;13.752;2022-12-11T07:31:29;0.20;1.00
816;DHT22;25928;51.062;13.752;2022-12-11T07:34:04;0.20;1.00
816;DHT22;25928;51.062;13.752;2022-12-11T07:36:30;0.20;1.00
816;DHT22;25928;51.062;13.752;2022-12-11T07:38:57;0.30;1.00
816;DHT22;25928;51.062;13.752;2022-12-11T07:41:23;0.40;1.00
816;DHT22;25928;51.062;13.752;2022-12-11T07:43:49;0.40;1.00
816;DHT22;25928;51.062;13.752;2022-12-11T07:46:24;0.30;1.00
816;DHT22;25928;51.062;13.752;2022-12-11T07:48:49;0.30;1.00
816;DHT22;25928;51.062;13.752;2022-12-11T07:51:27;0.30;1.00
816;DHT22;25928;51.062;13.752;2022-12-11T07:53:58;0.30;1.00
816;DHT22;25928;51.062;13.752;2022-12-11T07:56:25;0.10;1.00
816;DHT22;25928;51.062;13.752;2022-12-11T07:58:51;0.20;1.00
816;DHT22;25928;51.062;13.752;2022-12-11T08:01:25;0.30;1.00
816;DHT22;25928;51.062;13.752;2022-12-11T08:03:52;0.40;1.00
816;DHT22;25928;51.062;13.752;2022-12-11T08:06:18;0.30;1.00
816;DHT22;25928;51.062;13.752;2022-12-11T08:08:45;0.40;1.00
816;DHT22;25928;51.062;13.752;2022-12-11T08:11:13;0.30;1.00
816;DHT22;25928;51.062;13.752;2022-12-11T08:13:40;0.20;1.00
816;DHT22;25928;51.062;13.752;2022-12-11T08:16:08;0.20;1.00
816;DHT22;25928;51.062;13.752;2022-12-11T08:18:36;0.20;1.00
816;DHT22;25928;51.062;13.752;2022-12-11T08:23:31;0.40;1.00
816;DHT22;25928;51.062;13.752;2022-12-11T08:25:57;0.10;1.00
816;DHT22;25928;51.062;13.752;2022-12-11T08:28:22;0.30;1.00
816;DHT22;25928;51.062;13.752;2022-12-11T08:30:48;0.30;1.00
816;DHT22;25928;51.062;13.752;2022-12-11T08:33:13;0.20;1.00
816;DHT22;25928;51.062;13.752;2022-12-11T08:35:39;0.40;1.00
816;DHT22;25928;51.062;13.752;2022-12-11T08:38:05;0.30;1.00
816;DHT22;25928;51.062;13.752;2022-12-11T08:40:30;0.30;1.00
816;DHT22;25928;51.062;13.752;2022-12-11T08:42:56;0.20;1.00
816;DHT22;25928;51.062;13.752;2022-12-11T08:45:22;0.30;1.00
816;DHT22;25928;51.062;13.752;2022-12-11T08:47:47;0.40;1.00
816;DHT22;25928;51.062;13.752;2022-12-11T08:50:13;0.50;1.00
816;DHT22;25928;51.062;13.752;2022-12-11T08:52:38;0.40;1.00
816;DHT22;25928;51.062;13.752;2022-12-11T08:55:04;0.50;1.00
816;DHT22;25928;51.062;13.752;2022-12-11T08:57:30;0.60;1.00
816;DHT22;25928;51.062;13.752;2022-12-11T08:59:56;0.50;1.00
816;DHT22;25928;51.062;13.752;2022-12-11T09:02:21;0.60;1.00
816;DHT22;25928;51.062;13.752;2022-12-11T09:04:47;0.70;1.00
816;DHT22;25928;51.062;13.752;2022-12-11T09:07:12;0.70;1.00
816;DHT22;25928;51.062;13.752;2022-12-11T09:09:38;0.80;1.00
816;DHT22;25928;51.062;13.752;2022-12-11T09:12:03;0.80;1.00
816;DHT22;25928;51.062;13.752;2022-12-11T09:14:29;0.40;1.00
816;DHT22;25928;51.062;13.752;2022-12-11T09:16:55;0.40;1.00
816;DHT22;25928;51.062;13.752;2022-12-11T09:19:21;0.30;1.00
816;DHT22;25928;51.062;13.752;2022-12-11T09:21:47;0.40;1.00
816;DHT22;25928;51.062;13.752;2022-12-11T09:24:13;0.30;1.00
816;DHT22;25928;51.062;13.752;2022-12-11T09:26:40;0.40;1.00
816;DHT22;25928;51.062;13.752;2022-12-11T09:29:06;0.50;1.00
816;DHT22;25928;51.062;13.752;2022-12-11T09:31:34;0.60;1.00
816;DHT22;25928;51.062;13.752;2022-12-11T09:34:03;0.70;1.00
816;DHT22;25928;51.062;13.752;2022-12-11T09:36:29;0.40;1.00
816;DHT22;25928;51.062;13.752;2022-12-11T09:38:55;0.60;1.00
816;DHT22;25928;51.062;13.752;2022-12-11T09:44:23;0.70;1.00
816;DHT22;25928;51.062;13.752;2022-12-11T09:46:52;0.80;1.00
816;DHT22;25928;51.062;13.752;2022-12-11T09:49:35;0.90;1.00
816;DHT22;25928;51.062;13.752;2022-12-11T09:52:17;1.00;1.00
816;DHT22;25928;51.062;13.752;2022-12-11T09:54:49;1.00;1.00
816;DHT22;25928;51.062;13.752;2022-12-11T10:03:06;1.00;1.00
816;DHT22;25928;51.062;13.752;2022-12-11T10:05:55;0.90;1.00
816;DHT22;25928;51.062;13.752;2022-12-11T10:08:38;0.70;1.00
816;DHT22;25928;51.062;13.752;2022-12-11T10:16:51;0.90;1.00
816;DHT22;25928;51.062;13.752;2022-12-11T10:19:25;0.90;1.00
816;DHT22;25928;51.062;13.752;2022-12-11T10:21:53;0.80;1.00
816;DHT22;25928;51.062;13.752;2022-12-11T10:24:53;1.00;1.00
816;DHT22;25928;51.062;13.752;2022-12-11T10:27:24;1.10;1.00
816;DHT22;25928;51.062;13.752;2022-12-11T10:35:35;1.20;1.00
816;DHT22;25928;51.062;13.752;2022-12-11T10:38:25;1.50;1.00
816;DHT22;25928;51.062;13.752;2022-12-11T10:40:58;1.60;1.00
816;DHT22;25928;51.062;13.752;2022-12-11T10:43:51;1.60;1.00
816;DHT22;25928;51.062;13.752;2022-12-11T10:46:23;1.40;1.00
816;DHT22;25928;51.062;13.752;2022-12-11T10:48:52;1.50;1.00
816;DHT22;25928;51.062;13.752;2022-12-11T10:54:07;1.50;1.00
816;DHT22;25928;51.062;13.752;2022-12-11T10:56:35;1.70;1.00
816;DHT22;25928;51.062;13.752;2022-12-11T10:59:02;1.90;1.00
816;DHT22;25928;51.062;13.752;2022-12-11T11:01:30;1.90;1.00
816;DHT22;25928;51.062;13.752;2022-12-11T11:06:26;1.90;1.00
816;DHT22;25928;51.062;13.752;2022-12-11T11:08:56;1.90;1.00
816;DHT22;25928;51.062;13.752;2022-12-11T11:11:49;2.00;1.00
816;DHT22;25928;51.062;13.752;2022-12-11T11:14:19;1.90;1.00
816;DHT22;25928;51.062;13.752;2022-12-11T11:16:48;1.80;1.00
816;DHT22;25928;51.062;13.752;2022-12-11T11:19:34;1.90;1.00
816;DHT22;25928;51.062;13.752;2022-12-11T11:22:07;1.70;1.00
816;DHT22;25928;51.062;13.752;2022-12-11T11:24:51;1.50;1.00
816;DHT22;25928;51.062;13.752;2022-12-11T11:27:33;1.50;1.00
816;DHT22;25928;51.062;13.752;2022-12-11T11:30:05;1.60;1.00
816;DHT22;25928;51.062;13.752;2022-12-11T11:32:37;1.50;1.00
816;DHT22;25928;51.062;13.752;2022-12-11T11:37:36;1.40;1.00
816;DHT22;25928;51.062;13.752;2022-12-11T11:40:12;1.20;1.00
816;DHT22;25928;51.062;13.752;2022-12-11T11:45:43;1.10;1.00
816;DHT22;25928;51.062;13.752;2022-12-11T11:50:51;1.20;1.00
816;DHT22;25928;51.062;13.752;2022-12-11T11:53:32;1.20;1.00
816;DHT22;25928;51.062;13.752;2022-12-11T12:01:27;1.00;1.00
816;DHT22;25928;51.062;13.752;2022-12-11T12:03:53;1.80;1.00
816;DHT22;25928;51.062;13.752;2022-12-11T12:16:58;0.80;1.00
816;DHT22;25928;51.062;13.752;2022-12-11T12:25:01;0.90;1.00
816;DHT22;25928;51.062;13.752;2022-12-11T12:30:33;1.00;1.00
816;DHT22;25928;51.062;13.752;2022-12-11T12:35:36;0.90;1.00
816;DHT22;25928;51.062;13.752;2022-12-11T12:46:56;1.00;1.00
816;DHT22;25928;51.062;13.752;2022-12-11T12:52:01;1.20;1.00
816;DHT22;25928;51.062;13.752;2022-12-11T12:54:29;1.20;1.00
816;DHT22;25928;51.062;13.752;2022-12-11T12:56:57;1.20;1.00
816;DHT22;25928;51.062;13.752;2022-12-11T12:59:25;1.30;1.00
816;DHT22;25928;51.062;13.752;2022-12-11T13:01:59;1.40;1.00
816;DHT22;25928;51.062;13.752;2022-12-11T13:04:41;1.40;1.00
816;DHT22;25928;51.062;13.752;2022-12-11T13:07:16;1.40;1.00
816;DHT22;25928;51.062;13.752;2022-12-11T13:09:42;1.40;1.00
816;DHT22;25928;51.062;13.752;2022-12-11T13:12:33;1.20;1.00
816;DHT22;25928;51.062;13.752;2022-12-11T13:15:04;1.20;1.00
816;DHT22;25928;51.062;13.752;2022-12-11T13:17:37;1.30;1.00
816;DHT22;25928;51.062;13.752;2022-12-11T13:20:22;1.10;1.00
816;DHT22;25928;51.062;13.752;2022-12-11T13:25:45;1.20;1.00
816;DHT22;25928;51.062;13.752;2022-12-11T13:28:25;1.10;1.00
816;DHT22;25928;51.062;13.752;2022-12-11T13:31:02;1.10;1.00
816;DHT22;25928;51.062;13.752;2022-12-11T13:33:29;1.30;1.00
816;DHT22;25928;51.062;13.752;2022-12-11T13:38:34;1.30;1.00
816;DHT22;25928;51.062;13.752;2022-12-11T13:41:03;1.30;1.00
816;DHT22;25928;51.062;13.752;2022-12-11T13:43:32;1.20;1.00
816;DHT22;25928;51.062;13.752;2022-12-11T13:46:03;1.20;1.00
816;DHT22;25928;51.062;13.752;2022-12-11T13:48:35;1.10;1.00
816;DHT22;25928;51.062;13.752;2022-12-11T13:51:03;1.00;1.00
816;DHT22;25928;51.062;13.752;2022-12-11T13:53:29;1.10;1.00
816;DHT22;25928;51.062;13.752;2022-12-11T13:55:57;1.00;1.00
816;DHT22;25928;51.062;13.752;2022-12-11T13:58:24;1.10;1.00
816;DHT22;25928;51.062;13.752;2022-12-11T14:03:22;1.00;1.00
816;DHT22;25928;51.062;13.752;2022-12-11T14:05:48;1.00;1.00
816;DHT22;25928;51.062;13.752;2022-12-11T14:08:19;2.90;1.00
816;DHT22;25928;51.062;13.752;2022-12-11T14:10:53;1.00;1.00
816;DHT22;25928;51.062;13.752;2022-12-11T14:13:22;0.90;1.00
816;DHT22;25928;51.062;13.752;2022-12-11T14:15:49;0.90;1.00
816;DHT22;25928;51.062;13.752;2022-12-11T14:18:19;0.80;1.00
816;DHT22;25928;51.062;13.752;2022-12-11T14:20:53;0.60;1.00
816;DHT22;25928;51.062;13.752;2022-12-11T14:23:26;0.40;1.00
816;DHT22;25928;51.062;13.752;2022-12-11T14:26:03;0.30;1.00
816;DHT22;25928;51.062;13.752;2022-12-11T14:28:40;0.20;1.00
816;DHT22;25928;51.062;13.752;2022-12-11T14:31:07;0.20;1.00
816;DHT22;25928;51.062;13.752;2022-12-11T14:33:50;0.10;1.00
816;DHT22;25928;51.062;13.752;2022-12-11T14:36:16;0.20;1.00
816;DHT22;25928;51.062;13.752;2022-12-11T14:38:46;0.30;1.00
816;DHT22;25928;51.062;13.752;2022-12-11T14:41:45;0.30;1.00
816;DHT22;25928;51.062;13.752;2022-12-11T14:44:14;0.40;1.00
816;DHT22;25928;51.062;13.752;2022-12-11T14:52:19;0.40;1.00
816;DHT22;25928;51.062;13.752;2022-12-11T14:54:49;0.30;1.00
816;DHT22;25928;51.062;13.752;2022-12-11T14:57:19;0.40;1.00
816;DHT22;25928;51.062;13.752;2022-12-11T14:59:48;0.50;1.00
816;DHT22;25928;51.062;13.752;2022-12-11T15:02:35;0.40;1.00
816;DHT22;25928;51.062;13.752;2022-12-11T15:05:27;0.40;1.00
816;DHT22;25928;51.062;13.752;2022-12-11T15:07:57;0.50;1.00
816;DHT22;25928;51.062;13.752;2022-12-11T15:12:51;0.30;1.00
816;DHT22;25928;51.062;13.752;2022-12-11T15:15:17;0.20;1.00
816;DHT22;25928;51.062;13.752;2022-12-11T15:17:44;0.30;1.00
816;DHT22;25928;51.062;13.752;2022-12-11T15:20:21;0.30;1.00
816;DHT22;25928;51.062;13.752;2022-12-11T15:22:47;0.30;1.00
816;DHT22;25928;51.062;13.752;2022-12-11T15:25:20;0.40;1.00
816;DHT22;25928;51.062;13.752;2022-12-11T15:27:50;0.50;1.00
816;DHT22;25928;51.062;13.752;2022-12-11T15:32:44;0.60;1.00
816;DHT22;25928;51.062;13.752;2022-12-11T15:35:25;0.50;1.00
816;DHT22;25928;51.062;13.752;2022-12-11T15:37:52;0.40;1.00
816;DHT22;25928;51.062;13.752;2022-12-11T15:40:18;0.60;1.00
816;DHT22;25928;51.062;13.752;2022-12-11T15:42:44;0.50;1.00
816;DHT22;25928;51.062;13.752;2022-12-11T15:45:21;0.40;1.00
816;DHT22;25928;51.062;13.752;2022-12-11T15:47:48;0.40;1.00
816;DHT22;25928;51.062;13.752;2022-12-11T15:50:16;0.40;1.00
816;DHT22;25928;51.062;13.752;2022-12-11T15:52:42;0.40;1.00
816;DHT22;25928;51.062;13.752;2022-12-11T15:55:09;0.40;1.00
816;DHT22;25928;51.062;13.752;2022-12-11T15:57:35;0.30;1.00
816;DHT22;25928;51.062;13.752;2022-12-11T16:00:00;0.20;1.00
816;DHT22;25928;51.062;13.752;2022-12-11T16:02:26;0.30;1.00
816;DHT22;25928;51.062;13.752;2022-12-11T16:04:53;0.20;1.00
816;DHT22;25928;51.062;13.752;2022-12-11T16:07:21;0.20;1.00
816;DHT22;25928;51.062;13.752;2022-12-11T16:09:47;0.10;1.00
816;DHT22;25928;51.062;13.752;2022-12-11T16:12:13;0.10;1.00
816;DHT22;25928;51.062;13.752;2022-12-11T16:14:42;0.10;1.00
816;DHT22;25928;51.062;13.752;2022-12-11T16:17:09;0.10;1.00
816;DHT22;25928;51.062;13.752;2022-12-11T16:19:35;0.10;1.00
816;DHT22;25928;51.062;13.752;2022-12-11T16:22:02;0.10;1.00
816;DHT22;25928;51.062;13.752;2022-12-11T16:24:28;0.10;1.00
816;DHT22;25928;51.062;13.752;2022-12-11T16:26:53;0.10;1.00
816;DHT22;25928;51.062;13.752;2022-12-11T16:29:19;0.00;1.00
816;DHT22;25928;51.062;13.752;2022-12-11T16:31:45;0.00;1.00
816;DHT22;25928;51.062;13.752;2022-12-11T16:34:10;0.00;1.00
816;DHT22;25928;51.062;13.752;2022-12-11T16:36:36;0.60;1.00
816;DHT22;25928;51.062;13.752;2022-12-11T16:39:03;0.10;1.00
816;DHT22;25928;51.062;13.752;2022-12-11T16:41:28;0.00;1.00
816;DHT22;25928;51.062;13.752;2022-12-11T16:43:54;0.20;1.00
816;DHT22;25928;51.062;13.752;2022-12-11T16:46:21;0.20;1.00
816;DHT22;25928;51.062;13.752;2022-12-11T16:48:47;0.30;1.00
816;DHT22;25928;51.062;13.752;2022-12-11T16:51:14;0.10;1.00
816;DHT22;25928;51.062;13.752;2022-12-11T16:53:39;0.10;1.00
816;DHT22;25928;51.062;13.752;2022-12-11T16:56:06;0.10;1.00
816;DHT22;25928;51.062;13.752;2022-12-11T16:58:32;0.00;1.00
816;DHT22;25928;51.062;13.752;2022-12-11T17:00:57;0.00;1.00
816;DHT22;25928;51.062;13.752;2022-12-11T17:03:32;0.00;1.00
816;DHT22;25928;51.062;13.752;2022-12-11T17:05:58;-0.10;1.00
816;DHT22;25928;51.062;13.752;2022-12-11T17:08:24;0.00;1.00
816;DHT22;25928;51.062;13.752;2022-12-11T17:10:50;0.10;1.00
816;DHT22;25928;51.062;13.752;2022-12-11T17:13:16;0.00;1.00
816;DHT22;25928;51.062;13.752;2022-12-11T17:15:42;0.10;1.00
816;DHT22;25928;51.062;13.752;2022-12-11T17:18:09;0.00;1.00
816;DHT22;25928;51.062;13.752;2022-12-11T17:20:39;0.10;1.00
816;DHT22;25928;51.062;13.752;2022-12-11T17:23:05;0.00;1.00
816;DHT22;25928;51.062;13.752;2022-12-11T17:25:30;0.10;1.00
816;DHT22;25928;51.062;13.752;2022-12-11T17:27:56;0.00;1.00
816;DHT22;25928;51.062;13.752;2022-12-11T17:30:21;0.00;1.00
816;DHT22;25928;51.062;13.752;2022-12-11T17:32:48;0.00;1.00
816;DHT22;25928;51.062;13.752;2022-12-11T17:35:13;0.00;1.00
816;DHT22;25928;51.062;13.752;2022-12-11T17:37:39;0.00;1.00
816;DHT22;25928;51.062;13.752;2022-12-11T17:40:05;0.10;1.00
816;DHT22;25928;51.062;13.752;2022-12-11T17:42:31;0.20;1.00
816;DHT22;25928;51.062;13.752;2022-12-11T17:44:56;0.20;1.00
816;DHT22;25928;51.062;13.752;2022-12-11T17:47:22;0.20;1.00
816;DHT22;25928;51.062;13.752;2022-12-11T17:49:48;0.10;1.00
816;DHT22;25928;51.062;13.752;2022-12-11T17:52:13;0.10;1.00
816;DHT22;25928;51.062;13.752;2022-12-11T17:54:39;0.20;1.00
816;DHT22;25928;51.062;13.752;2022-12-11T17:57:04;0.80;1.00
816;DHT22;25928;51.062;13.752;2022-12-11T17:59:31;0.20;1.00
816;DHT22;25928;51.062;13.752;2022-12-11T18:01:57;0.10;1.00
816;DHT22;25928;51.062;13.752;2022-12-11T18:04:23;0.00;1.00
816;DHT22;25928;51.062;13.752;2022-12-11T18:06:48;0.10;1.00
816;DHT22;25928;51.062;13.752;2022-12-11T18:09:14;0.10;1.00
816;DHT22;25928;51.062;13.752;2022-12-11T18:11:40;0.10;1.00
816;DHT22;25928;51.062;13.752;2022-12-11T18:14:05;0.10;1.00
816;DHT22;25928;51.062;13.752;2022-12-11T18:16:34;0.20;1.00
816;DHT22;25928;51.062;13.752;2022-12-11T18:19:01;0.10;1.00